sensor_id;sensor_type;location;lat;lon;timestamp;P1;durP1;ratioP1;P2;durP2;ratioP2
21122;SDS011;10719;48.130;11.630;2024-02-26T00:00:34;12.00;;;4.00;;
21122;SDS011;10719;48.130;11.630;2024-02-26T00:03:00;9.93;;;3.60;;
21122;SDS011;10719;48.130;11.630;2024-02-26T00:05:26;7.45;;;3.03;;
21122;SDS011;10719;48.130;11.630;2024-02-26T00:07:52;10.77;;;3.53;;
21122;SDS011;10719;48.130;11.630;2024-02-26T00:10:17;8.23;;;3.53;;
21122;SDS011;10719;48.130;11.630;2024-02-26T00:12:43;7.85;;;3.25;;
21122;SDS011;10719;48.130;11.630;2024-02-26T00:15:09;9.38;;;3.35;;
21122;SDS011;10719;48.130;11.630;2024-02-26T00:17:35;8.33;;;3.47;;
21122;SDS011;10719;48.130;11.630;2024-02-26T00:20:02;10.73;;;3.47;;
21122;SDS011;10719;48.130;11.630;2024-02-26T00:22:33;7.85;;;3.13;;
21122;SDS011;10719;48.130;11.630;2024-02-26T00:24:59;9.50;;;3.50;;
21122;SDS011;10719;48.130;11.630;2024-02-26T00:27:25;9.33;;;3.23;;
21122;SDS011;10719;48.130;11.630;2024-02-26T00:29:51;8.67;;;3.53;;
21122;SDS011;10719;48.130;11.630;2024-02-26T00:32:17;8.30;;;2.90;;
21122;SDS011;10719;48.130;11.630;2024-02-26T00:34:43;11.30;;;3.47;;
21122;SDS011;10719;48.130;11.630;2024-02-26T00:37:09;9.70;;;3.43;;
21122;SDS011;10719;48.130;11.630;2024-02-26T00:39:35;8.03;;;3.10;;
21122;SDS011;10719;48.130;11.630;2024-02-26T00:42:00;7.40;;;3.13;;
21122;SDS011;10719;48.130;11.630;2024-02-26T00:44:26;7.20;;;2.80;;
21122;SDS011;10719;48.130;11.630;2024-02-26T00:46:51;8.87;;;3.10;;
21122;SDS011;10719;48.130;11.630;2024-02-26T00:49:17;7.50;;;3.10;;
21122;SDS011;10719;48.130;11.630;2024-02-26T00:51:43;7.57;;;2.73;;
21122;SDS011;10719;48.130;11.630;2024-02-26T00:54:09;6.93;;;2.80;;
21122;SDS011;10719;48.130;11.630;2024-02-26T00:56:34;6.10;;;2.33;;
21122;SDS011;10719;48.130;11.630;2024-02-26T00:59:00;8.40;;;3.00;;
21122;SDS011;10719;48.130;11.630;2024-02-26T01:01:26;10.87;;;2.70;;
21122;SDS011;10719;48.130;11.630;2024-02-26T01:03:52;8.73;;;3.30;;
21122;SDS011;10719;48.130;11.630;2024-02-26T01:06:17;7.63;;;3.13;;
21122;SDS011;10719;48.130;11.630;2024-02-26T01:08:43;7.20;;;2.57;;
21122;SDS011;10719;48.130;11.630;2024-02-26T01:11:09;9.63;;;3.20;;
21122;SDS011;10719;48.130;11.630;2024-02-26T01:13:34;7.83;;;3.13;;
21122;SDS011;10719;48.130;11.630;2024-02-26T01:16:00;6.23;;;2.53;;
21122;SDS011;10719;48.130;11.630;2024-02-26T01:18:26;7.83;;;3.20;;
21122;SDS011;10719;48.130;11.630;2024-02-26T01:20:52;6.73;;;2.33;;
21122;SDS011;10719;48.130;11.630;2024-02-26T01:23:19;7.37;;;2.77;;
21122;SDS011;10719;48.130;11.630;2024-02-26T01:25:45;8.77;;;2.70;;
21122;SDS011;10719;48.130;11.630;2024-02-26T01:28:11;5.47;;;2.23;;
21122;SDS011;10719;48.130;11.630;2024-02-26T01:30:37;5.37;;;2.37;;
21122;SDS011;10719;48.130;11.630;2024-02-26T01:33:03;5.37;;;2.87;;
21122;SDS011;10719;48.130;11.630;2024-02-26T01:35:29;6.10;;;2.60;;
21122;SDS011;10719;48.130;11.630;2024-02-26T01:37:55;6.03;;;2.43;;
21122;SDS011;10719;48.130;11.630;2024-02-26T01:40:20;9.20;;;3.27;;
21122;SDS011;10719;48.130;11.630;2024-02-26T01:42:46;7.00;;;2.93;;
21122;SDS011;10719;48.130;11.630;2024-02-26T01:45:16;8.03;;;2.73;;
21122;SDS011;10719;48.130;11.630;2024-02-26T01:47:51;6.53;;;2.57;;
21122;SDS011;10719;48.130;11.630;2024-02-26T01:50:18;5.47;;;2.30;;
21122;SDS011;10719;48.130;11.630;2024-02-26T01:52:47;7.93;;;3.00;;
21122;SDS011;10719;48.130;11.630;2024-02-26T01:55:15;5.73;;;2.60;;
21122;SDS011;10719;48.130;11.630;2024-02-26T01:57:43;6.20;;;2.57;;
21122;SDS011;10719;48.130;11.630;2024-02-26T02:00:10;7.10;;;2.40;;
21122;SDS011;10719;48.130;11.630;2024-02-26T02:02:37;7.10;;;2.53;;
21122;SDS011;10719;48.130;11.630;2024-02-26T02:05:05;5.83;;;2.13;;
21122;SDS011;10719;48.130;11.630;2024-02-26T02:07:32;6.20;;;2.50;;
21122;SDS011;10719;48.130;11.630;2024-02-26T02:09:59;9.57;;;2.43;;
21122;SDS011;10719;48.130;11.630;2024-02-26T02:12:25;7.43;;;2.80;;
21122;SDS011;10719;48.130;11.630;2024-02-26T02:14:52;6.23;;;2.37;;
21122;SDS011;10719;48.130;11.630;2024-02-26T02:17:17;7.03;;;2.63;;
21122;SDS011;10719;48.130;11.630;2024-02-26T02:19:44;3.10;;;1.70;;
21122;SDS011;10719;48.130;11.630;2024-02-26T02:22:10;8.13;;;2.50;;
21122;SDS011;10719;48.130;11.630;2024-02-26T02:24:35;7.97;;;2.50;;
21122;SDS011;10719;48.130;11.630;2024-02-26T02:27:01;6.93;;;2.40;;
21122;SDS011;10719;48.130;11.630;2024-02-26T02:29:28;4.63;;;2.30;;
21122;SDS011;10719;48.130;11.630;2024-02-26T02:31:54;7.87;;;2.20;;
21122;SDS011;10719;48.130;11.630;2024-02-26T02:34:20;6.07;;;2.23;;
21122;SDS011;10719;48.130;11.630;2024-02-26T02:36:53;7.57;;;2.27;;
21122;SDS011;10719;48.130;11.630;2024-02-26T02:39:20;6.67;;;2.43;;
21122;SDS011;10719;48.130;11.630;2024-02-26T02:41:46;6.57;;;2.10;;
21122;SDS011;10719;48.130;11.630;2024-02-26T02:44:11;6.60;;;2.80;;
21122;SDS011;10719;48.130;11.630;2024-02-26T02:46:38;5.93;;;2.20;;
21122;SDS011;10719;48.130;11.630;2024-02-26T02:49:04;4.87;;;2.07;;
21122;SDS011;10719;48.130;11.630;2024-02-26T02:51:33;4.50;;;1.77;;
21122;SDS011;10719;48.130;11.630;2024-02-26T02:53:59;3.80;;;1.70;;
21122;SDS011;10719;48.130;11.630;2024-02-26T02:56:24;4.03;;;1.77;;
21122;SDS011;10719;48.130;11.630;2024-02-26T02:58:50;4.87;;;1.90;;
21122;SDS011;10719;48.130;11.630;2024-02-26T03:01:16;5.47;;;1.90;;
21122;SDS011;10719;48.130;11.630;2024-02-26T03:03:41;6.97;;;2.10;;
21122;SDS011;10719;48.130;11.630;2024-02-26T03:06:07;4.60;;;1.90;;
21122;SDS011;10719;48.130;11.630;2024-02-26T03:08:32;4.97;;;1.93;;
21122;SDS011;10719;48.130;11.630;2024-02-26T03:11:01;6.07;;;2.00;;
21122;SDS011;10719;48.130;11.630;2024-02-26T03:13:27;7.83;;;2.30;;
21122;SDS011;10719;48.130;11.630;2024-02-26T03:15:53;6.67;;;1.87;;
21122;SDS011;10719;48.130;11.630;2024-02-26T03:18:18;4.70;;;2.10;;
21122;SDS011;10719;48.130;11.630;2024-02-26T03:20:44;5.37;;;2.17;;
21122;SDS011;10719;48.130;11.630;2024-02-26T03:23:09;6.07;;;2.10;;
21122;SDS011;10719;48.130;11.630;2024-02-26T03:25:37;4.80;;;1.80;;
21122;SDS011;10719;48.130;11.630;2024-02-26T03:28:03;5.00;;;1.97;;
21122;SDS011;10719;48.130;11.630;2024-02-26T03:30:29;9.33;;;2.43;;
21122;SDS011;10719;48.130;11.630;2024-02-26T03:32:55;4.23;;;1.90;;
21122;SDS011;10719;48.130;11.630;2024-02-26T03:35:21;5.90;;;2.70;;
21122;SDS011;10719;48.130;11.630;2024-02-26T03:37:47;5.70;;;2.20;;
21122;SDS011;10719;48.130;11.630;2024-02-26T03:40:12;7.13;;;2.40;;
21122;SDS011;10719;48.130;11.630;2024-02-26T03:42:39;3.33;;;1.70;;
21122;SDS011;10719;48.130;11.630;2024-02-26T03:45:06;4.47;;;2.00;;
21122;SDS011;10719;48.130;11.630;2024-02-26T03:47:31;7.07;;;2.13;;
21122;SDS011;10719;48.130;11.630;2024-02-26T03:49:57;5.17;;;2.10;;
21122;SDS011;10719;48.130;11.630;2024-02-26T03:52:24;6.07;;;2.20;;
21122;SDS011;10719;48.130;11.630;2024-02-26T03:54:49;6.60;;;2.50;;
21122;SDS011;10719;48.130;11.630;2024-02-26T03:57:15;6.43;;;2.03;;
21122;SDS011;10719;48.130;11.630;2024-02-26T03:59:41;6.00;;;2.10;;
21122;SDS011;10719;48.130;11.630;2024-02-26T04:02:06;6.17;;;1.90;;
21122;SDS011;10719;48.130;11.630;2024-02-26T04:04:35;5.23;;;1.97;;
21122;SDS011;10719;48.130;11.630;2024-02-26T04:07:01;3.57;;;1.73;;
21122;SDS011;10719;48.130;11.630;2024-02-26T04:09:26;4.07;;;2.10;;
21122;SDS011;10719;48.130;11.630;2024-02-26T04:11:52;4.40;;;1.80;;
21122;SDS011;10719;48.130;11.630;2024-02-26T04:14:17;5.17;;;1.67;;
21122;SDS011;10719;48.130;11.630;2024-02-26T04:16:43;3.50;;;1.33;;
21122;SDS011;10719;48.130;11.630;2024-02-26T04:19:09;3.53;;;1.33;;
21122;SDS011;10719;48.130;11.630;2024-02-26T04:21:34;4.43;;;2.00;;
21122;SDS011;10719;48.130;11.630;2024-02-26T04:24:00;4.73;;;1.87;;
21122;SDS011;10719;48.130;11.630;2024-02-26T04:26:27;4.47;;;2.10;;
21122;SDS011;10719;48.130;11.630;2024-02-26T04:28:54;3.03;;;1.57;;
21122;SDS011;10719;48.130;11.630;2024-02-26T04:31:19;5.83;;;2.47;;
21122;SDS011;10719;48.130;11.630;2024-02-26T04:33:45;5.97;;;1.93;;
21122;SDS011;10719;48.130;11.630;2024-02-26T04:36:14;3.67;;;1.67;;
21122;SDS011;10719;48.130;11.630;2024-02-26T04:38:43;4.50;;;1.93;;
21122;SDS011;10719;48.130;11.630;2024-02-26T04:41:09;3.50;;;1.57;;
21122;SDS011;10719;48.130;11.630;2024-02-26T04:43:35;4.47;;;1.90;;
21122;SDS011;10719;48.130;11.630;2024-02-26T04:46:06;5.40;;;2.10;;
21122;SDS011;10719;48.130;11.630;2024-02-26T04:48:33;4.00;;;1.60;;
21122;SDS011;10719;48.130;11.630;2024-02-26T04:50:59;5.43;;;1.90;;
21122;SDS011;10719;48.130;11.630;2024-02-26T04:53:25;2.43;;;1.37;;
21122;SDS011;10719;48.130;11.630;2024-02-26T04:55:51;5.67;;;1.97;;
21122;SDS011;10719;48.130;11.630;2024-02-26T04:58:16;3.73;;;1.53;;
21122;SDS011;10719;48.130;11.630;2024-02-26T05:00:42;5.93;;;1.80;;
21122;SDS011;10719;48.130;11.630;2024-02-26T05:03:09;5.07;;;1.80;;
21122;SDS011;10719;48.130;11.630;2024-02-26T05:05:38;4.43;;;1.77;;
21122;SDS011;10719;48.130;11.630;2024-02-26T05:08:05;8.20;;;1.90;;
21122;SDS011;10719;48.130;11.630;2024-02-26T05:10:32;5.67;;;1.97;;
21122;SDS011;10719;48.130;11.630;2024-02-26T05:13:04;3.80;;;1.43;;
21122;SDS011;10719;48.130;11.630;2024-02-26T05:15:30;5.30;;;1.67;;
21122;SDS011;10719;48.130;11.630;2024-02-26T05:17:56;4.10;;;1.57;;
21122;SDS011;10719;48.130;11.630;2024-02-26T05:20:21;3.93;;;1.90;;
21122;SDS011;10719;48.130;11.630;2024-02-26T05:22:47;4.13;;;1.47;;
21122;SDS011;10719;48.130;11.630;2024-02-26T05:25:14;5.60;;;1.73;;
21122;SDS011;10719;48.130;11.630;2024-02-26T05:27:41;3.93;;;1.70;;
21122;SDS011;10719;48.130;11.630;2024-02-26T05:30:07;5.37;;;1.80;;
21122;SDS011;10719;48.130;11.630;2024-02-26T05:32:33;6.68;;;2.60;;
21122;SDS011;10719;48.130;11.630;2024-02-26T05:34:58;5.20;;;2.13;;
21122;SDS011;10719;48.130;11.630;2024-02-26T05:37:24;7.13;;;2.20;;
21122;SDS011;10719;48.130;11.630;2024-02-26T05:39:50;4.77;;;2.13;;
21122;SDS011;10719;48.130;11.630;2024-02-26T05:42:15;7.07;;;2.60;;
21122;SDS011;10719;48.130;11.630;2024-02-26T05:44:41;5.10;;;1.97;;
21122;SDS011;10719;48.130;11.630;2024-02-26T05:47:07;8.10;;;2.00;;
21122;SDS011;10719;48.130;11.630;2024-02-26T05:49:32;14.17;;;2.53;;
21122;SDS011;10719;48.130;11.630;2024-02-26T05:51:58;7.37;;;2.43;;
21122;SDS011;10719;48.130;11.630;2024-02-26T05:54:24;5.20;;;1.80;;
21122;SDS011;10719;48.130;11.630;2024-02-26T05:56:50;4.87;;;1.60;;
21122;SDS011;10719;48.130;11.630;2024-02-26T05:59:15;7.93;;;1.73;;
21122;SDS011;10719;48.130;11.630;2024-02-26T06:01:41;7.17;;;2.17;;
21122;SDS011;10719;48.130;11.630;2024-02-26T06:04:06;3.90;;;1.63;;
21122;SDS011;10719;48.130;11.630;2024-02-26T06:06:32;4.43;;;1.50;;
21122;SDS011;10719;48.130;11.630;2024-02-26T06:08:58;7.83;;;2.30;;
21122;SDS011;10719;48.130;11.630;2024-02-26T06:11:23;7.57;;;2.90;;
21122;SDS011;10719;48.130;11.630;2024-02-26T06:13:49;7.07;;;2.37;;
21122;SDS011;10719;48.130;11.630;2024-02-26T06:16:15;10.30;;;2.73;;
21122;SDS011;10719;48.130;11.630;2024-02-26T06:18:41;7.40;;;2.67;;
21122;SDS011;10719;48.130;11.630;2024-02-26T06:21:09;11.60;;;3.00;;
21122;SDS011;10719;48.130;11.630;2024-02-26T06:23:35;7.87;;;2.90;;
21122;SDS011;10719;48.130;11.630;2024-02-26T06:26:01;9.00;;;2.97;;
21122;SDS011;10719;48.130;11.630;2024-02-26T06:28:27;9.13;;;3.37;;
21122;SDS011;10719;48.130;11.630;2024-02-26T06:30:55;9.20;;;3.00;;
21122;SDS011;10719;48.130;11.630;2024-02-26T06:33:21;9.77;;;3.40;;
21122;SDS011;10719;48.130;11.630;2024-02-26T06:35:47;9.13;;;3.10;;
21122;SDS011;10719;48.130;11.630;2024-02-26T06:38:12;7.67;;;2.90;;
21122;SDS011;10719;48.130;11.630;2024-02-26T06:40:38;15.83;;;5.77;;
21122;SDS011;10719;48.130;11.630;2024-02-26T06:43:04;14.87;;;4.20;;
21122;SDS011;10719;48.130;11.630;2024-02-26T06:45:31;9.37;;;3.53;;
21122;SDS011;10719;48.130;11.630;2024-02-26T06:47:56;10.47;;;3.40;;
21122;SDS011;10719;48.130;11.630;2024-02-26T06:50:22;10.63;;;3.37;;
21122;SDS011;10719;48.130;11.630;2024-02-26T06:52:47;13.53;;;3.90;;
21122;SDS011;10719;48.130;11.630;2024-02-26T06:55:13;17.30;;;4.27;;
21122;SDS011;10719;48.130;11.630;2024-02-26T06:57:39;14.07;;;3.87;;
21122;SDS011;10719;48.130;11.630;2024-02-26T07:00:05;9.63;;;2.93;;
21122;SDS011;10719;48.130;11.630;2024-02-26T07:02:31;8.07;;;2.70;;
21122;SDS011;10719;48.130;11.630;2024-02-26T07:04:57;6.40;;;2.40;;
21122;SDS011;10719;48.130;11.630;2024-02-26T07:07:23;5.53;;;2.40;;
21122;SDS011;10719;48.130;11.630;2024-02-26T07:09:49;5.03;;;2.20;;
21122;SDS011;10719;48.130;11.630;2024-02-26T07:12:15;10.23;;;2.00;;
21122;SDS011;10719;48.130;11.630;2024-02-26T07:14:41;7.67;;;2.13;;
21122;SDS011;10719;48.130;11.630;2024-02-26T07:17:07;10.65;;;2.38;;
21122;SDS011;10719;48.130;11.630;2024-02-26T07:19:33;6.95;;;2.40;;
21122;SDS011;10719;48.130;11.630;2024-02-26T07:21:59;6.57;;;2.00;;
21122;SDS011;10719;48.130;11.630;2024-02-26T07:24:27;6.93;;;2.17;;
21122;SDS011;10719;48.130;11.630;2024-02-26T07:26:53;9.45;;;2.28;;
21122;SDS011;10719;48.130;11.630;2024-02-26T07:29:20;7.15;;;2.33;;
21122;SDS011;10719;48.130;11.630;2024-02-26T07:31:46;5.95;;;1.98;;
21122;SDS011;10719;48.130;11.630;2024-02-26T07:34:12;7.25;;;2.00;;
21122;SDS011;10719;48.130;11.630;2024-02-26T07:36:38;7.40;;;2.15;;
21122;SDS011;10719;48.130;11.630;2024-02-26T07:39:03;8.57;;;1.73;;
21122;SDS011;10719;48.130;11.630;2024-02-26T07:41:30;5.57;;;1.70;;
21122;SDS011;10719;48.130;11.630;2024-02-26T07:43:55;5.07;;;1.85;;
21122;SDS011;10719;48.130;11.630;2024-02-26T07:46:21;5.13;;;1.95;;
21122;SDS011;10719;48.130;11.630;2024-02-26T07:48:47;3.35;;;1.40;;
21122;SDS011;10719;48.130;11.630;2024-02-26T07:51:13;6.60;;;2.20;;
21122;SDS011;10719;48.130;11.630;2024-02-26T07:53:39;12.10;;;2.08;;
21122;SDS011;10719;48.130;11.630;2024-02-26T07:56:05;4.90;;;1.70;;
21122;SDS011;10719;48.130;11.630;2024-02-26T07:58:34;3.35;;;1.67;;
21122;SDS011;10719;48.130;11.630;2024-02-26T08:01:00;4.72;;;1.80;;
21122;SDS011;10719;48.130;11.630;2024-02-26T08:03:26;6.68;;;1.73;;
21122;SDS011;10719;48.130;11.630;2024-02-26T08:05:51;5.72;;;1.65;;
21122;SDS011;10719;48.130;11.630;2024-02-26T08:08:17;6.47;;;1.90;;
21122;SDS011;10719;48.130;11.630;2024-02-26T08:10:43;5.18;;;2.00;;
21122;SDS011;10719;48.130;11.630;2024-02-26T08:13:09;6.10;;;1.98;;
21122;SDS011;10719;48.130;11.630;2024-02-26T08:15:35;6.22;;;1.95;;
21122;SDS011;10719;48.130;11.630;2024-02-26T08:18:02;8.57;;;2.17;;
21122;SDS011;10719;48.130;11.630;2024-02-26T08:20:28;8.48;;;2.28;;
21122;SDS011;10719;48.130;11.630;2024-02-26T08:22:55;6.07;;;2.20;;
21122;SDS011;10719;48.130;11.630;2024-02-26T08:25:21;5.05;;;1.92;;
21122;SDS011;10719;48.130;11.630;2024-02-26T08:27:46;5.68;;;2.15;;
21122;SDS011;10719;48.130;11.630;2024-02-26T08:30:13;5.90;;;2.20;;
21122;SDS011;10719;48.130;11.630;2024-02-26T08:32:41;11.77;;;2.08;;
21122;SDS011;10719;48.130;11.630;2024-02-26T08:35:11;7.00;;;2.80;;
21122;SDS011;10719;48.130;11.630;2024-02-26T08:37:36;7.13;;;2.00;;
21122;SDS011;10719;48.130;11.630;2024-02-26T08:40:02;6.38;;;2.00;;
21122;SDS011;10719;48.130;11.630;2024-02-26T08:42:29;2.15;;;1.20;;
21122;SDS011;10719;48.130;11.630;2024-02-26T08:44:54;5.00;;;2.10;;
21122;SDS011;10719;48.130;11.630;2024-02-26T08:47:20;4.57;;;1.73;;
21122;SDS011;10719;48.130;11.630;2024-02-26T08:49:46;3.65;;;1.65;;
21122;SDS011;10719;48.130;11.630;2024-02-26T08:52:11;6.43;;;2.40;;
21122;SDS011;10719;48.130;11.630;2024-02-26T08:54:37;4.80;;;2.08;;
21122;SDS011;10719;48.130;11.630;2024-02-26T08:57:03;6.85;;;2.00;;
21122;SDS011;10719;48.130;11.630;2024-02-26T08:59:29;7.22;;;2.35;;
21122;SDS011;10719;48.130;11.630;2024-02-26T09:01:54;7.95;;;2.22;;
21122;SDS011;10719;48.130;11.630;2024-02-26T09:04:20;7.60;;;2.05;;
21122;SDS011;10719;48.130;11.630;2024-02-26T09:06:46;6.95;;;2.13;;
21122;SDS011;10719;48.130;11.630;2024-02-26T09:09:12;11.25;;;2.65;;
21122;SDS011;10719;48.130;11.630;2024-02-26T09:11:37;7.28;;;2.58;;
21122;SDS011;10719;48.130;11.630;2024-02-26T09:14:03;8.13;;;2.30;;
21122;SDS011;10719;48.130;11.630;2024-02-26T09:16:29;7.75;;;2.42;;
21122;SDS011;10719;48.130;11.630;2024-02-26T09:18:56;7.97;;;2.92;;
21122;SDS011;10719;48.130;11.630;2024-02-26T09:21:22;7.10;;;2.50;;
21122;SDS011;10719;48.130;11.630;2024-02-26T09:23:51;8.63;;;2.83;;
21122;SDS011;10719;48.130;11.630;2024-02-26T09:26:17;8.30;;;2.30;;
21122;SDS011;10719;48.130;11.630;2024-02-26T09:28:43;9.27;;;2.53;;
21122;SDS011;10719;48.130;11.630;2024-02-26T09:31:08;6.80;;;3.13;;
21122;SDS011;10719;48.130;11.630;2024-02-26T09:33:34;9.23;;;2.75;;
21122;SDS011;10719;48.130;11.630;2024-02-26T09:36:00;5.90;;;2.03;;
21122;SDS011;10719;48.130;11.630;2024-02-26T09:38:26;6.05;;;2.25;;
21122;SDS011;10719;48.130;11.630;2024-02-26T09:40:52;6.88;;;2.30;;
21122;SDS011;10719;48.130;11.630;2024-02-26T09:43:21;6.03;;;2.20;;
21122;SDS011;10719;48.130;11.630;2024-02-26T09:45:49;5.28;;;1.90;;
21122;SDS011;10719;48.130;11.630;2024-02-26T09:48:16;6.05;;;1.80;;
21122;SDS011;10719;48.130;11.630;2024-02-26T09:50:43;5.13;;;1.60;;
21122;SDS011;10719;48.130;11.630;2024-02-26T09:53:09;5.30;;;1.75;;
21122;SDS011;10719;48.130;11.630;2024-02-26T09:55:36;9.07;;;1.90;;
21122;SDS011;10719;48.130;11.630;2024-02-26T09:58:02;3.97;;;1.70;;
21122;SDS011;10719;48.130;11.630;2024-02-26T10:00:30;5.35;;;1.65;;
21122;SDS011;10719;48.130;11.630;2024-02-26T10:03:00;3.55;;;1.60;;
21122;SDS011;10719;48.130;11.630;2024-02-26T10:05:29;7.50;;;2.03;;
21122;SDS011;10719;48.130;11.630;2024-02-26T10:07:56;5.28;;;1.80;;
21122;SDS011;10719;48.130;11.630;2024-02-26T10:10:22;3.25;;;1.45;;
21122;SDS011;10719;48.130;11.630;2024-02-26T10:12:48;3.95;;;1.75;;
21122;SDS011;10719;48.130;11.630;2024-02-26T10:15:14;4.32;;;1.60;;
21122;SDS011;10719;48.130;11.630;2024-02-26T10:17:40;3.33;;;1.50;;
21122;SDS011;10719;48.130;11.630;2024-02-26T10:20:24;4.40;;;1.60;;
21122;SDS011;10719;48.130;11.630;2024-02-26T10:22:51;6.07;;;1.55;;
21122;SDS011;10719;48.130;11.630;2024-02-26T10:25:17;5.22;;;1.80;;
21122;SDS011;10719;48.130;11.630;2024-02-26T10:27:44;5.78;;;1.63;;
21122;SDS011;10719;48.130;11.630;2024-02-26T10:30:21;4.97;;;1.40;;
21122;SDS011;10719;48.130;11.630;2024-02-26T10:32:48;3.47;;;1.30;;
21122;SDS011;10719;48.130;11.630;2024-02-26T10:35:15;3.17;;;1.20;;
21122;SDS011;10719;48.130;11.630;2024-02-26T10:37:41;5.00;;;1.13;;
21122;SDS011;10719;48.130;11.630;2024-02-26T10:40:10;3.22;;;1.15;;
21122;SDS011;10719;48.130;11.630;2024-02-26T10:42:36;4.05;;;1.38;;
21122;SDS011;10719;48.130;11.630;2024-02-26T10:45:05;4.22;;;1.17;;
21122;SDS011;10719;48.130;11.630;2024-02-26T10:47:31;2.20;;;1.00;;
21122;SDS011;10719;48.130;11.630;2024-02-26T10:49:58;5.75;;;1.27;;
21122;SDS011;10719;48.130;11.630;2024-02-26T10:52:26;1.80;;;0.98;;
21122;SDS011;10719;48.130;11.630;2024-02-26T10:54:54;3.22;;;1.10;;
21122;SDS011;10719;48.130;11.630;2024-02-26T10:57:24;2.95;;;1.17;;
21122;SDS011;10719;48.130;11.630;2024-02-26T10:59:51;5.18;;;1.52;;
21122;SDS011;10719;48.130;11.630;2024-02-26T11:02:18;2.80;;;1.08;;
21122;SDS011;10719;48.130;11.630;2024-02-26T11:04:45;2.25;;;1.05;;
21122;SDS011;10719;48.130;11.630;2024-02-26T11:07:12;4.80;;;1.35;;
21122;SDS011;10719;48.130;11.630;2024-02-26T11:09:39;3.03;;;1.02;;
21122;SDS011;10719;48.130;11.630;2024-02-26T11:12:10;4.40;;;0.90;;
21122;SDS011;10719;48.130;11.630;2024-02-26T11:14:38;2.30;;;1.08;;
21122;SDS011;10719;48.130;11.630;2024-02-26T11:17:05;4.25;;;1.20;;
21122;SDS011;10719;48.130;11.630;2024-02-26T11:19:34;3.55;;;1.27;;
21122;SDS011;10719;48.130;11.630;2024-02-26T11:22:00;2.65;;;1.10;;
21122;SDS011;10719;48.130;11.630;2024-02-26T11:24:27;3.42;;;1.38;;
21122;SDS011;10719;48.130;11.630;2024-02-26T11:26:54;3.67;;;1.20;;
21122;SDS011;10719;48.130;11.630;2024-02-26T11:29:24;5.10;;;1.30;;
21122;SDS011;10719;48.130;11.630;2024-02-26T11:31:58;2.83;;;1.20;;
21122;SDS011;10719;48.130;11.630;2024-02-26T11:34:24;2.67;;;1.00;;
21122;SDS011;10719;48.130;11.630;2024-02-26T11:36:51;5.53;;;1.40;;
21122;SDS011;10719;48.130;11.630;2024-02-26T11:39:16;2.75;;;1.05;;
21122;SDS011;10719;48.130;11.630;2024-02-26T11:41:42;1.90;;;0.82;;
21122;SDS011;10719;48.130;11.630;2024-02-26T11:44:08;3.03;;;0.90;;
21122;SDS011;10719;48.130;11.630;2024-02-26T11:46:40;1.17;;;0.70;;
21122;SDS011;10719;48.130;11.630;2024-02-26T11:51:56;1.92;;;0.90;;
21122;SDS011;10719;48.130;11.630;2024-02-26T11:54:58;2.75;;;1.08;;
21122;SDS011;10719;48.130;11.630;2024-02-26T11:59:47;2.72;;;0.70;;
21122;SDS011;10719;48.130;11.630;2024-02-26T12:02:37;2.13;;;0.80;;
21122;SDS011;10719;48.130;11.630;2024-02-26T12:07:47;3.83;;;1.10;;
21122;SDS011;10719;48.130;11.630;2024-02-26T12:10:24;2.55;;;0.82;;
21122;SDS011;10719;48.130;11.630;2024-02-26T12:15:23;2.53;;;0.80;;
21122;SDS011;10719;48.130;11.630;2024-02-26T12:17:49;3.42;;;0.80;;
21122;SDS011;10719;48.130;11.630;2024-02-26T12:20:16;2.28;;;0.65;;
21122;SDS011;10719;48.130;11.630;2024-02-26T12:22:44;3.30;;;0.85;;
21122;SDS011;10719;48.130;11.630;2024-02-26T12:25:14;3.72;;;1.05;;
21122;SDS011;10719;48.130;11.630;2024-02-26T12:27:40;3.00;;;1.05;;
21122;SDS011;10719;48.130;11.630;2024-02-26T12:30:06;2.58;;;0.75;;
21122;SDS011;10719;48.130;11.630;2024-02-26T12:32:33;4.13;;;0.90;;
21122;SDS011;10719;48.130;11.630;2024-02-26T12:34:59;3.25;;;1.05;;
21122;SDS011;10719;48.130;11.630;2024-02-26T12:37:26;1.42;;;0.65;;
21122;SDS011;10719;48.130;11.630;2024-02-26T12:39:53;3.08;;;0.80;;
21122;SDS011;10719;48.130;11.630;2024-02-26T12:42:18;0.93;;;0.57;;
21122;SDS011;10719;48.130;11.630;2024-02-26T12:44:46;8.30;;;0.80;;
21122;SDS011;10719;48.130;11.630;2024-02-26T12:47:11;3.10;;;0.90;;
21122;SDS011;10719;48.130;11.630;2024-02-26T12:49:42;3.58;;;1.27;;
21122;SDS011;10719;48.130;11.630;2024-02-26T12:52:09;5.97;;;1.70;;
21122;SDS011;10719;48.130;11.630;2024-02-26T12:54:35;3.90;;;1.23;;
21122;SDS011;10719;48.130;11.630;2024-02-26T12:57:04;5.70;;;1.90;;
21122;SDS011;10719;48.130;11.630;2024-02-26T12:59:31;4.05;;;1.75;;
21122;SDS011;10719;48.130;11.630;2024-02-26T13:01:59;4.47;;;1.60;;
21122;SDS011;10719;48.130;11.630;2024-02-26T13:04:25;4.78;;;1.65;;
21122;SDS011;10719;48.130;11.630;2024-02-26T13:06:54;4.45;;;1.60;;
21122;SDS011;10719;48.130;11.630;2024-02-26T13:09:20;5.57;;;1.88;;
21122;SDS011;10719;48.130;11.630;2024-02-26T13:11:52;3.97;;;1.55;;
21122;SDS011;10719;48.130;11.630;2024-02-26T13:14:21;3.00;;;1.55;;
21122;SDS011;10719;48.130;11.630;2024-02-26T13:16:54;4.00;;;1.80;;
21122;SDS011;10719;48.130;11.630;2024-02-26T13:19:21;6.47;;;2.10;;
21122;SDS011;10719;48.130;11.630;2024-02-26T13:21:46;5.03;;;1.80;;
21122;SDS011;10719;48.130;11.630;2024-02-26T13:24:13;6.63;;;2.20;;
21122;SDS011;10719;48.130;11.630;2024-02-26T13:26:39;4.70;;;2.10;;
21122;SDS011;10719;48.130;11.630;2024-02-26T13:29:04;5.38;;;2.03;;
21122;SDS011;10719;48.130;11.630;2024-02-26T13:31:30;6.10;;;1.80;;
21122;SDS011;10719;48.130;11.630;2024-02-26T13:33:57;4.22;;;1.65;;
21122;SDS011;10719;48.130;11.630;2024-02-26T13:36:23;4.65;;;1.70;;
21122;SDS011;10719;48.130;11.630;2024-02-26T13:38:53;5.00;;;1.50;;
21122;SDS011;10719;48.130;11.630;2024-02-26T13:41:19;3.40;;;1.25;;
21122;SDS011;10719;48.130;11.630;2024-02-26T13:43:46;3.47;;;1.38;;
21122;SDS011;10719;48.130;11.630;2024-02-26T13:46:12;5.55;;;1.67;;
21122;SDS011;10719;48.130;11.630;2024-02-26T13:48:40;3.75;;;1.55;;
21122;SDS011;10719;48.130;11.630;2024-02-26T13:51:06;5.72;;;1.77;;
21122;SDS011;10719;48.130;11.630;2024-02-26T13:53:32;4.30;;;1.33;;
21122;SDS011;10719;48.130;11.630;2024-02-26T13:55:57;5.72;;;1.30;;
21122;SDS011;10719;48.130;11.630;2024-02-26T13:58:26;4.57;;;1.50;;
21122;SDS011;10719;48.130;11.630;2024-02-26T14:00:52;3.30;;;1.50;;
21122;SDS011;10719;48.130;11.630;2024-02-26T14:03:20;5.57;;;1.88;;
21122;SDS011;10719;48.130;11.630;2024-02-26T14:05:46;4.88;;;1.98;;
21122;SDS011;10719;48.130;11.630;2024-02-26T14:08:12;4.13;;;1.60;;
21122;SDS011;10719;48.130;11.630;2024-02-26T14:10:38;6.32;;;1.95;;
21122;SDS011;10719;48.130;11.630;2024-02-26T14:13:04;5.30;;;2.08;;
21122;SDS011;10719;48.130;11.630;2024-02-26T14:15:30;4.72;;;1.77;;
21122;SDS011;10719;48.130;11.630;2024-02-26T14:17:56;3.30;;;1.70;;
21122;SDS011;10719;48.130;11.630;2024-02-26T14:20:22;4.63;;;1.83;;
21122;SDS011;10719;48.130;11.630;2024-02-26T14:22:52;5.85;;;1.98;;
21122;SDS011;10719;48.130;11.630;2024-02-26T14:25:18;7.68;;;2.15;;
21122;SDS011;10719;48.130;11.630;2024-02-26T14:27:45;5.82;;;1.92;;
21122;SDS011;10719;48.130;11.630;2024-02-26T14:30:12;5.80;;;2.08;;
21122;SDS011;10719;48.130;11.630;2024-02-26T14:32:38;7.40;;;2.45;;
21122;SDS011;10719;48.130;11.630;2024-02-26T14:35:07;7.05;;;2.15;;
21122;SDS011;10719;48.130;11.630;2024-02-26T14:37:34;4.18;;;1.75;;
21122;SDS011;10719;48.130;11.630;2024-02-26T14:40:01;4.22;;;1.90;;